Lane, Oklahoma
Current Conditions -  °F | °C
As of 10:55 AM on Sunday 23 Nov 2014 (Local Time) from KAQR Reporting Station
Broken Clouds Broken Clouds  
Wind Chill: 64°   Ceiling: 1600
Heat Index: 64°   Visibility: 10mi
Dew Point: 55°   Wind: 10mph
Humidity: 73%   Direction: 180°S
Pressure: 29.43"   Gusts: 16mph
Location:  34.3°N, 95.99°W
Report Text: KAQR 231655Z AUTO 18009G14KT 10SM BKN016 18/13 A2943 RMK AO2
Loading
Personal Weather Stations






























Interactive Weather Map New forecast layout! Learn more

10-Day Weather Forecast

Advertisements
Track Severe Weather on mobile